createdAt,value
2022-09-15T00:02:12.618Z,16
2022-09-15T00:04:47.087Z,16
2022-09-15T00:07:21.101Z,15
2022-09-15T00:09:54.297Z,16
2022-09-15T00:12:27.110Z,16
2022-09-15T00:14:59.504Z,16
2022-09-15T00:17:32.707Z,16
2022-09-15T00:20:06.927Z,16
2022-09-15T00:22:39.376Z,16
2022-09-15T00:25:13.500Z,19
2022-09-15T00:27:46.183Z,16
2022-09-15T00:30:19.006Z,18
2022-09-15T00:32:51.860Z,16
2022-09-15T00:35:24.608Z,22
2022-09-15T00:37:57.478Z,20
2022-09-15T00:40:31.653Z,16
2022-09-15T00:43:04.346Z,12
2022-09-15T00:45:37.049Z,16
2022-09-15T00:48:09.606Z,16
2022-09-15T00:50:42.384Z,12
2022-09-15T00:53:14.762Z,16
2022-09-15T00:55:47.348Z,16
2022-09-15T00:58:19.942Z,12
2022-09-15T01:00:52.530Z,15
2022-09-15T01:03:25.704Z,12
2022-09-15T01:05:57.912Z,16
2022-09-15T01:08:31.710Z,15
2022-09-15T01:11:06.790Z,12
2022-09-15T01:13:41.822Z,12
2022-09-15T01:16:17.178Z,12
2022-09-15T01:18:49.846Z,16
2022-09-15T01:21:23.312Z,12
2022-09-15T01:23:55.965Z,15
2022-09-15T01:26:28.646Z,16
2022-09-15T01:29:01.382Z,15
2022-09-15T01:31:37.143Z,16
2022-09-15T01:34:09.087Z,16
2022-09-15T01:36:43.127Z,15
2022-09-15T01:39:16.113Z,16
2022-09-15T01:41:49.173Z,16
2022-09-15T01:44:21.977Z,15
2022-09-15T01:46:54.839Z,12
2022-09-15T01:49:29.052Z,12
2022-09-15T01:52:01.378Z,12
2022-09-15T01:54:34.813Z,11
2022-09-15T01:57:07.465Z,15
2022-09-15T01:59:39.725Z,15
2022-09-15T02:02:12.271Z,12
2022-09-15T02:04:47.900Z,12
2022-09-15T02:07:22.895Z,12
2022-09-15T02:09:58.384Z,12
2022-09-15T02:12:31.675Z,10
2022-09-15T02:15:04.366Z,8
2022-09-15T02:17:37.045Z,8
2022-09-15T02:20:09.744Z,8
2022-09-15T02:22:42.287Z,9
2022-09-15T02:25:16.493Z,8
2022-09-15T02:27:49.222Z,8
2022-09-15T02:30:21.545Z,12
2022-09-15T02:32:53.866Z,15
2022-09-15T02:35:26.545Z,16
2022-09-15T02:37:59.051Z,16
2022-09-15T02:40:33.144Z,19
2022-09-15T02:43:06.309Z,22
2022-09-15T02:45:38.246Z,16
2022-09-15T02:48:10.639Z,16
2022-09-15T02:50:44.007Z,18
2022-09-15T02:53:15.773Z,16
2022-09-15T02:55:47.944Z,16
2022-09-15T02:58:22.208Z,13
2022-09-15T03:00:55.352Z,12
2022-09-15T03:03:29.966Z,15
2022-09-15T03:06:03.745Z,12
2022-09-15T03:08:38.985Z,16
2022-09-15T03:11:10.647Z,12
2022-09-15T03:13:47.198Z,15
2022-09-15T03:16:20.383Z,14
2022-09-15T03:18:54.087Z,12
2022-09-15T03:21:28.483Z,13
2022-09-15T03:24:01.184Z,12
2022-09-15T03:26:33.824Z,16
2022-09-15T03:29:07.820Z,12
2022-09-15T03:31:40.568Z,12
2022-09-15T03:34:13.328Z,12
2022-09-15T03:36:46.048Z,12
2022-09-15T03:39:19.842Z,16
2022-09-15T03:42:04.666Z,12
2022-09-15T03:44:38.335Z,12
2022-09-15T03:47:10.776Z,15
2022-09-15T03:49:43.470Z,15
2022-09-15T03:52:16.212Z,21
2022-09-15T03:54:48.830Z,13
2022-09-15T03:57:21.548Z,16
2022-09-15T03:59:54.419Z,12
2022-09-15T04:02:27.609Z,16
2022-09-15T04:05:03.713Z,12
2022-09-15T04:07:36.516Z,18
2022-09-15T04:10:09.071Z,18
2022-09-15T04:12:44.128Z,18
2022-09-15T04:15:18.416Z,15
2022-09-15T04:17:51.167Z,16
2022-09-15T04:20:23.881Z,16
2022-09-15T04:22:57.165Z,16
2022-09-15T04:25:31.109Z,12
2022-09-15T04:28:04.983Z,16
2022-09-15T04:30:37.725Z,16
2022-09-15T04:33:10.439Z,20
2022-09-15T04:35:46.148Z,21
2022-09-15T04:38:17.592Z,15
2022-09-15T04:40:50.440Z,16
2022-09-15T04:43:22.854Z,20
2022-09-15T04:45:55.737Z,20
2022-09-15T04:48:28.329Z,21
2022-09-15T04:51:03.211Z,24
2022-09-15T04:53:35.912Z,18
2022-09-15T04:56:08.420Z,20
2022-09-15T04:58:41.264Z,20
2022-09-15T05:01:14.365Z,24
2022-09-15T05:03:47.333Z,20
2022-09-15T05:06:21.155Z,19
2022-09-15T05:08:54.088Z,24
2022-09-15T05:11:27.829Z,20
2022-09-15T05:14:00.650Z,20
2022-09-15T05:16:32.953Z,20
2022-09-15T05:19:05.499Z,16
2022-09-15T05:21:38.237Z,20
2022-09-15T05:24:10.644Z,20
2022-09-15T05:26:43.601Z,13
2022-09-15T05:29:15.991Z,12
2022-09-15T05:31:48.893Z,12
2022-09-15T05:34:22.721Z,15
2022-09-15T05:36:55.486Z,20
2022-09-15T05:39:28.289Z,20
2022-09-15T05:42:00.857Z,24
2022-09-15T05:44:33.585Z,23
2022-09-15T05:47:07.907Z,20
2022-09-15T05:49:40.583Z,20
2022-09-15T05:52:13.921Z,20
2022-09-15T05:54:47.846Z,20
2022-09-15T05:57:20.704Z,16
2022-09-15T05:59:53.837Z,20
2022-09-15T06:02:26.422Z,12
2022-09-15T06:05:03.669Z,20
2022-09-15T06:07:36.696Z,20
2022-09-15T06:10:14.892Z,18
2022-09-15T06:12:49.390Z,24
2022-09-15T06:15:21.450Z,22
2022-09-15T06:17:54.986Z,28
2022-09-15T06:20:29.019Z,28
2022-09-15T06:23:01.605Z,25
2022-09-15T06:25:34.745Z,21
2022-09-15T06:28:07.368Z,28
2022-09-15T06:30:40.067Z,24
2022-09-15T06:33:14.092Z,28
2022-09-15T06:35:46.900Z,28
2022-09-15T06:38:19.551Z,36
2022-09-15T06:40:53.912Z,47
2022-09-15T06:43:26.710Z,45
2022-09-15T06:45:59.089Z,36
2022-09-15T06:48:32.006Z,28
2022-09-15T06:51:06.018Z,25
2022-09-15T06:53:41.221Z,24
2022-09-15T06:56:15.491Z,20
2022-09-15T06:58:48.336Z,22
2022-09-15T07:01:21.028Z,20
2022-09-15T07:03:54.015Z,20
2022-09-15T07:06:26.467Z,16
2022-09-15T07:09:01.039Z,20
2022-09-15T07:11:33.873Z,20
2022-09-15T07:14:07.985Z,20
2022-09-15T07:16:40.936Z,23
2022-09-15T07:19:15.321Z,32
2022-09-15T07:21:48.172Z,32
2022-09-15T07:24:21.039Z,24
2022-09-15T07:26:55.293Z,22
2022-09-15T07:29:28.035Z,20
2022-09-15T07:32:00.772Z,20
2022-09-15T07:34:33.429Z,16
2022-09-15T07:37:06.022Z,12
2022-09-15T07:39:38.571Z,16
2022-09-15T07:42:11.326Z,15
2022-09-15T07:44:44.174Z,13
2022-09-15T07:47:18.023Z,16
2022-09-15T07:49:50.455Z,20
2022-09-15T07:52:23.762Z,18
2022-09-15T07:54:56.654Z,24
2022-09-15T07:57:29.429Z,16
2022-09-15T08:00:02.528Z,23
2022-09-15T08:02:35.431Z,24
2022-09-15T08:05:08.669Z,29
2022-09-15T08:07:41.323Z,19
2022-09-15T08:10:14.131Z,20
2022-09-15T08:12:47.013Z,16
2022-09-15T08:15:19.611Z,16
2022-09-15T08:17:52.091Z,12
2022-09-15T08:20:24.563Z,15
2022-09-15T08:22:57.286Z,13
2022-09-15T08:25:29.764Z,12
2022-09-15T08:28:02.156Z,12
2022-09-15T08:30:34.343Z,8
2022-09-15T08:33:06.952Z,11
2022-09-15T08:35:39.602Z,8
2022-09-15T08:38:12.424Z,12
2022-09-15T08:40:44.527Z,9
2022-09-15T08:43:17.071Z,14
2022-09-15T08:45:52.020Z,15
2022-09-15T08:48:24.248Z,12
2022-09-15T08:50:58.556Z,12
2022-09-15T08:53:29.749Z,12
2022-09-15T08:56:02.072Z,12
2022-09-15T08:58:34.041Z,11
2022-09-15T09:01:06.752Z,12
2022-09-15T09:03:42.071Z,12
2022-09-15T09:06:16.065Z,20
2022-09-15T09:08:47.142Z,27
2022-09-15T09:11:19.473Z,20
2022-09-15T09:13:52.001Z,20
2022-09-15T09:16:24.985Z,15
2022-09-15T09:18:57.553Z,24
2022-09-15T09:21:29.949Z,28
2022-09-15T09:24:02.505Z,12
2022-09-15T09:26:34.718Z,16
2022-09-15T09:29:07.355Z,12
2022-09-15T09:31:39.844Z,15
2022-09-15T09:34:11.303Z,12
2022-09-15T09:36:43.146Z,11
2022-09-15T09:39:16.068Z,8
2022-09-15T09:41:48.759Z,16
2022-09-15T09:44:20.747Z,9
2022-09-15T09:47:00.618Z,16
2022-09-15T09:50:00.812Z,12
2022-09-15T09:52:35.039Z,12
2022-09-15T09:55:09.988Z,14
2022-09-15T09:57:42.639Z,12
2022-09-15T10:00:15.759Z,8
2022-09-15T10:02:48.586Z,8
2022-09-15T10:08:00.812Z,12
2022-09-15T10:10:38.182Z,8
2022-09-15T10:13:12.946Z,10
2022-09-15T10:15:44.698Z,12
2022-09-15T10:18:16.737Z,12
2022-09-15T10:20:52.208Z,12
2022-09-15T10:23:25.780Z,31
2022-09-15T10:26:00.533Z,11
2022-09-15T10:28:32.698Z,8
2022-09-15T10:31:05.178Z,26
2022-09-15T10:33:37.853Z,12
2022-09-15T10:36:08.994Z,8
2022-09-15T10:38:42.476Z,12
2022-09-15T10:41:14.800Z,8
2022-09-15T10:43:49.465Z,12
2022-09-15T10:46:21.166Z,8
2022-09-15T10:48:53.586Z,9
2022-09-15T10:51:26.061Z,8
2022-09-15T10:54:00.325Z,10
2022-09-15T10:56:32.744Z,8
2022-09-15T10:59:05.326Z,8
2022-09-15T11:01:37.686Z,52
2022-09-15T11:04:10.090Z,32
2022-09-15T11:06:44.533Z,16
2022-09-15T11:09:17.063Z,12
2022-09-15T11:11:49.027Z,15
2022-09-15T11:14:21.750Z,10
2022-09-15T11:16:54.447Z,13
2022-09-15T11:19:27.041Z,12
2022-09-15T11:21:59.240Z,8
2022-09-15T11:24:32.118Z,12
2022-09-15T11:27:05.823Z,12
2022-09-15T11:29:38.331Z,12
2022-09-15T11:32:11.093Z,8
2022-09-15T11:34:43.643Z,8
2022-09-15T11:37:15.729Z,13
2022-09-15T11:39:53.015Z,11
2022-09-15T11:42:24.534Z,8
2022-09-15T11:44:55.655Z,12
2022-09-15T11:47:33.823Z,8
2022-09-15T11:50:06.369Z,9
2022-09-15T11:52:38.931Z,5
2022-09-15T11:55:11.649Z,8
2022-09-15T11:57:44.621Z,7
2022-09-15T12:00:17.258Z,8
2022-09-15T12:02:49.991Z,5
2022-09-15T12:05:21.272Z,12
2022-09-15T12:07:56.515Z,12
2022-09-15T12:10:28.687Z,12
2022-09-15T12:13:02.022Z,10
2022-09-15T12:15:35.743Z,11
2022-09-15T12:18:39.166Z,12
2022-09-15T12:21:17.119Z,12
2022-09-15T12:23:52.386Z,12
2022-09-15T12:26:25.029Z,12
2022-09-15T12:28:57.978Z,12
2022-09-15T12:31:31.305Z,8
2022-09-15T12:34:04.488Z,19
2022-09-15T12:36:37.011Z,13
2022-09-15T12:39:11.224Z,13
2022-09-15T12:41:46.652Z,12
2022-09-15T12:44:19.320Z,9
2022-09-15T12:46:51.351Z,12
2022-09-15T12:49:24.441Z,8
2022-09-15T12:51:57.200Z,8
2022-09-15T12:54:29.630Z,8
2022-09-15T12:57:04.130Z,8
2022-09-15T12:59:36.436Z,12
2022-09-15T13:02:10.895Z,12
2022-09-15T13:04:44.848Z,10
2022-09-15T13:07:17.525Z,8
2022-09-15T13:09:48.589Z,10
2022-09-15T13:12:21.527Z,15
2022-09-15T13:14:53.840Z,12
2022-09-15T13:17:26.540Z,12
2022-09-15T13:19:59.090Z,12
2022-09-15T13:22:33.224Z,12
2022-09-15T13:25:06.512Z,12
2022-09-15T13:27:42.048Z,15
2022-09-15T13:30:16.224Z,16
2022-09-15T13:32:48.717Z,12
2022-09-15T13:35:21.669Z,9
2022-09-15T13:38:15.491Z,12
2022-09-15T13:41:02.007Z,12
2022-09-15T13:43:41.136Z,12
2022-09-15T13:46:19.955Z,11
2022-09-15T13:48:52.419Z,18
2022-09-15T13:51:25.022Z,12
2022-09-15T13:53:58.420Z,13
2022-09-15T13:56:30.645Z,16
2022-09-15T13:59:15.407Z,16
2022-09-15T14:01:53.640Z,12
2022-09-15T14:04:25.985Z,12
2022-09-15T14:07:01.777Z,12
2022-09-15T14:09:33.644Z,12
2022-09-15T14:12:05.885Z,12
2022-09-15T14:14:38.360Z,12
2022-09-15T14:17:10.877Z,16
2022-09-15T14:19:43.444Z,16
2022-09-15T14:22:14.682Z,16
2022-09-15T14:24:46.621Z,16
2022-09-15T14:27:18.819Z,16
2022-09-15T14:29:51.383Z,15
2022-09-15T14:32:23.941Z,20
2022-09-15T14:34:56.207Z,16
2022-09-15T14:37:28.735Z,13
2022-09-15T14:40:03.536Z,16
2022-09-15T14:42:36.020Z,16
2022-09-15T14:45:56.141Z,20
2022-09-15T14:48:39.182Z,20
2022-09-15T14:51:12.342Z,18
2022-09-15T14:53:46.638Z,16
2022-09-15T14:56:18.991Z,24
2022-09-15T14:58:50.544Z,30
2022-09-15T15:01:23.144Z,46
2022-09-15T15:03:58.970Z,28
2022-09-15T15:06:30.915Z,64
2022-09-15T20:57:19.596Z,12
2022-09-15T20:59:51.541Z,8
2022-09-15T21:02:24.498Z,32
2022-09-15T21:04:57.269Z,20
2022-09-15T21:07:29.873Z,12
2022-09-15T21:10:02.481Z,12
2022-09-15T21:12:38.207Z,10
2022-09-15T21:15:10.526Z,5
2022-09-15T21:17:43.050Z,8
2022-09-15T21:20:15.838Z,12
2022-09-15T21:22:48.070Z,7
2022-09-15T21:25:20.806Z,8
2022-09-15T21:27:53.179Z,4
2022-09-15T21:30:26.841Z,4
2022-09-15T21:32:59.445Z,8
2022-09-15T21:35:34.707Z,8
2022-09-15T21:38:09.304Z,4
2022-09-15T21:40:41.857Z,4
2022-09-15T21:43:14.414Z,4
2022-09-15T21:45:47.052Z,4
2022-09-15T21:48:19.436Z,7
2022-09-15T21:50:52.118Z,4
2022-09-15T21:53:24.760Z,8
2022-09-15T21:55:57.281Z,5
2022-09-15T21:58:30.345Z,4
2022-09-15T22:01:03.008Z,4
2022-09-15T22:03:36.131Z,8
2022-09-15T22:06:09.140Z,4
2022-09-15T22:08:42.082Z,5
2022-09-15T22:11:14.566Z,4
2022-09-15T22:13:47.333Z,2
2022-09-15T22:16:20.288Z,4
2022-09-15T22:18:51.586Z,4
2022-09-15T22:21:24.303Z,4
2022-09-15T22:23:57.058Z,4
2022-09-15T22:26:29.607Z,4
2022-09-15T22:29:02.290Z,4
2022-09-15T22:31:35.257Z,4
2022-09-15T22:34:08.588Z,4
2022-09-15T22:36:41.243Z,5
2022-09-15T22:39:13.719Z,4
2022-09-15T22:41:48.503Z,4
2022-09-15T22:44:22.506Z,4
2022-09-15T22:46:55.410Z,4
2022-09-15T22:49:29.807Z,4
2022-09-15T22:52:02.364Z,4
2022-09-15T22:54:35.230Z,4
2022-09-15T22:57:10.824Z,4
2022-09-15T22:59:41.871Z,4
2022-09-15T23:02:14.525Z,4
2022-09-15T23:04:47.062Z,4
2022-09-15T23:07:22.679Z,4
2022-09-15T23:09:56.906Z,0
2022-09-15T23:12:35.048Z,4
2022-09-15T23:15:07.731Z,4
2022-09-15T23:17:40.192Z,4
2022-09-15T23:20:11.944Z,4
2022-09-15T23:22:44.260Z,4
2022-09-15T23:25:16.882Z,4
2022-09-15T23:27:48.972Z,4
2022-09-15T23:30:21.214Z,0
2022-09-15T23:32:54.193Z,4
2022-09-15T23:35:26.647Z,4
2022-09-15T23:37:58.738Z,4
2022-09-15T23:40:32.787Z,0
2022-09-15T23:43:07.755Z,4
2022-09-15T23:45:43.067Z,4
2022-09-15T23:48:16.531Z,3
2022-09-15T23:50:48.658Z,0
2022-09-15T23:53:21.643Z,1
2022-09-15T23:55:54.305Z,4
2022-09-15T23:58:26.320Z,0
